Time;durP1;ratioP1;P1;durP2;ratioP2;P2;SDS_P1;SDS_P2;PMS_P1;PMS_P2;Temp;Humidity;BMP_temperature;BMP_pressure;BME280_temperature;BME280_humidity;BME280_pressure;Samples;Min_cycle;Max_cycle;Signal;HPM_P1;HPM_P2
2022/05/28 00:01:00;;;;;;;7.57;2.23;;;9.50;1.00;;;;;;5074544;28;20629;-62
2022/05/28 00:03:29;;;;;;;5.70;1.70;;;9.50;1.00;;;;;;5074053;28;20230;-63
2022/05/28 00:05:55;;;;;;;8.23;2.20;;;9.50;1.00;;;;;;5074300;28;20263;-63
2022/05/28 00:08:24;;;;;;;6.47;1.60;;;9.40;1.00;;;;;;5074115;28;20683;-63
2022/05/28 00:10:55;;;;;;;8.53;2.10;;;9.40;1.00;;;;;;5074458;28;20203;-63
2022/05/28 00:13:22;;;;;;;4.13;2.00;;;9.40;1.00;;;;;;5073953;28;20725;-64
2022/05/28 00:15:49;;;;;;;7.57;1.93;;;9.40;1.00;;;;;;5073972;28;20596;-63
2022/05/28 00:18:16;;;;;;;4.90;1.90;;;9.40;1.00;;;;;;5073350;28;20215;-64
2022/05/28 00:20:43;;;;;;;7.70;1.80;;;9.40;1.00;;;;;;5074048;28;20740;-64
2022/05/28 00:23:10;;;;;;;11.63;2.17;;;9.30;1.00;;;;;;5073934;28;20253;-64
2022/05/28 00:25:36;;;;;;;6.37;1.80;;;9.30;1.00;;;;;;5073981;28;20267;-62
2022/05/28 00:28:04;;;;;;;11.37;2.30;;;9.40;1.00;;;;;;5073871;28;20233;-64
2022/05/28 00:30:31;;;;;;;6.00;1.80;;;9.30;1.00;;;;;;5073806;28;20229;-63
2022/05/28 00:32:58;;;;;;;7.97;2.30;;;9.30;1.00;;;;;;5074039;28;20275;-63
2022/05/28 00:35:24;;;;;;;7.90;2.13;;;9.30;1.00;;;;;;5074018;28;20225;-64
2022/05/28 00:37:51;;;;;;;8.97;2.30;;;9.30;1.00;;;;;;5073631;28;20235;-63
2022/05/28 00:40:21;;;;;;;5.27;2.17;;;9.30;1.00;;;;;;5074108;28;20208;-64
2022/05/28 00:42:48;;;;;;;6.30;1.57;;;9.30;1.00;;;;;;5073568;28;20280;-63
2022/05/28 00:45:16;;;;;;;10.23;2.50;;;9.20;1.00;;;;;;5073934;28;20232;-63
2022/05/28 00:47:48;;;;;;;8.23;2.17;;;9.20;1.00;;;;;;5073363;28;20206;-63
2022/05/28 00:50:16;;;;;;;10.13;2.37;;;9.20;1.00;;;;;;5073834;28;20210;-64
2022/05/28 00:52:43;;;;;;;6.03;2.00;;;9.20;1.00;;;;;;5073223;28;20287;-64
2022/05/28 00:55:10;;;;;;;7.30;2.17;;;9.20;1.00;;;;;;5073455;28;20638;-64
2022/05/28 00:57:39;;;;;;;6.77;2.27;;;9.20;1.00;;;;;;5073096;28;20211;-63
2022/05/28 01:00:08;;;;;;;13.53;2.13;;;9.20;1.00;;;;;;5073363;28;20297;-64
2022/05/28 01:02:41;;;;;;;10.47;2.60;;;9.20;1.00;;;;;;5073310;28;20287;-63
2022/05/28 01:05:14;;;;;;;9.47;2.10;;;9.10;1.00;;;;;;5074108;28;20267;-63
2022/05/28 01:07:45;;;;;;;9.30;2.10;;;9.10;1.00;;;;;;5074927;28;20271;-64
2022/05/28 01:10:18;;;;;;;9.03;2.10;;;9.00;3.30;;;;;;5074573;28;20287;-62
2022/05/28 01:12:51;;;;;;;8.40;2.13;;;9.00;6.40;;;;;;5073136;28;20288;-64
2022/05/28 01:15:23;;;;;;;10.70;1.90;;;9.00;9.90;;;;;;5072849;28;20312;-63
2022/05/28 01:17:55;;;;;;;9.43;3.13;;;9.00;14.10;;;;;;5072681;28;20209;-64
2022/05/28 01:20:27;;;;;;;5.13;2.20;;;9.00;14.70;;;;;;5072843;28;20338;-63
2022/05/28 01:23:24;;;;;;;5.83;2.13;;;9.00;16.00;;;;;;5072823;28;20226;-64
2022/05/28 01:26:03;;;;;;;13.20;2.13;;;9.00;20.10;;;;;;5072669;28;20209;-64
2022/05/28 01:28:36;;;;;;;7.40;2.10;;;9.00;20.00;;;;;;5072422;28;20252;-64
2022/05/28 01:31:05;;;;;;;10.17;2.53;;;9.00;21.60;;;;;;5072979;28;20212;-64
2022/05/28 01:33:34;;;;;;;7.00;2.23;;;9.00;23.70;;;;;;5072589;28;20225;-63
2022/05/28 01:36:02;;;;;;;7.13;1.90;;;9.00;28.10;;;;;;5072296;28;20254;-64
2022/05/28 01:38:30;;;;;;;5.27;2.60;;;8.90;30.40;;;;;;5072436;28;20205;-63
2022/05/28 01:40:58;;;;;;;8.63;2.33;;;8.90;35.30;;;;;;5072462;28;20610;-63
2022/05/28 01:43:26;;;;;;;11.50;2.63;;;8.90;40.40;;;;;;5072219;28;20642;-63
2022/05/28 01:45:56;;;;;;;11.73;2.73;;;8.90;43.10;;;;;;5072139;28;20207;-63
2022/05/28 01:48:25;;;;;;;4.90;1.87;;;8.90;45.70;;;;;;5072523;28;20264;-64
2022/05/28 01:50:55;;;;;;;9.50;2.37;;;8.80;48.80;;;;;;5072167;28;20214;-64
2022/05/28 01:56:23;;;;;;;5.60;1.93;;;8.80;56.20;;;;;;5029375;28;20209;-63
2022/05/28 01:58:50;;;;;;;7.00;2.37;;;8.80;58.40;;;;;;5029919;28;20209;-64
2022/05/28 02:01:18;;;;;;;10.13;2.20;;;8.80;60.00;;;;;;5048355;28;20207;-62
2022/05/28 02:03:49;;;;;;;11.50;2.67;;;8.80;60.80;;;;;;5072085;28;20287;-62
2022/05/28 02:06:16;;;;;;;8.23;2.27;;;8.90;62.20;;;;;;5071684;28;20211;-63
2022/05/28 02:08:46;;;;;;;5.13;1.90;;;8.80;63.00;;;;;;5072242;28;20254;-64
2022/05/28 02:11:16;;;;;;;8.43;2.83;;;8.80;67.00;;;;;;5072162;28;20675;-64
2022/05/28 02:13:55;;;;;;;8.60;2.57;;;8.80;72.00;;;;;;5071874;28;20231;-63
2022/05/28 02:16:30;;;;;;;7.40;2.70;;;8.80;75.90;;;;;;5071598;28;20221;-64
2022/05/28 02:19:00;;;;;;;6.60;1.83;;;8.80;77.50;;;;;;5071704;28;20220;-64
2022/05/28 02:21:33;;;;;;;10.47;3.10;;;8.80;77.50;;;;;;5072017;28;20593;-64
2022/05/28 02:24:05;;;;;;;9.23;2.17;;;8.80;77.30;;;;;;5071825;28;20286;-64
2022/05/28 02:26:37;;;;;;;10.03;2.33;;;8.80;78.30;;;;;;5071548;28;20210;-63
2022/05/28 02:29:05;;;;;;;7.33;2.30;;;8.80;80.10;;;;;;5071799;28;20205;-64
2022/05/28 02:31:34;;;;;;;5.93;2.20;;;8.70;82.70;;;;;;5071884;28;20263;-62
2022/05/28 02:34:02;;;;;;;6.70;2.50;;;8.70;88.00;;;;;;5071887;28;20224;-63
2022/05/28 02:36:29;;;;;;;9.80;2.50;;;8.70;90.40;;;;;;5071456;28;20250;-64
2022/05/28 02:38:56;;;;;;;8.80;2.30;;;8.70;91.20;;;;;;5071937;28;20232;-62
2022/05/28 02:41:23;;;;;;;7.40;2.40;;;8.70;91.30;;;;;;5070994;28;20213;-63
2022/05/28 02:43:50;;;;;;;7.93;2.63;;;8.70;91.50;;;;;;5071916;28;20299;-63
2022/05/28 02:46:17;;;;;;;8.33;2.20;;;8.70;92.80;;;;;;5071610;28;20201;-63
2022/05/28 02:48:45;;;;;;;13.00;2.77;;;8.70;93.20;;;;;;5071708;28;20251;-63
2022/05/28 02:51:16;;;;;;;6.17;2.30;;;8.70;94.00;;;;;;5071569;28;20219;-63
2022/05/28 02:53:43;;;;;;;7.87;2.40;;;8.70;95.20;;;;;;5071452;28;20232;-63
2022/05/28 02:56:10;;;;;;;7.57;2.67;;;8.70;96.70;;;;;;5071130;28;20225;-64
2022/05/28 02:58:37;;;;;;;7.30;2.17;;;8.70;98.00;;;;;;5071691;28;20201;-63
2022/05/28 03:01:15;;;;;;;10.20;2.70;;;8.70;98.10;;;;;;5071797;28;20201;-63
2022/05/28 03:03:42;;;;;;;7.83;2.40;;;8.70;97.40;;;;;;5071401;28;20274;-64
2022/05/28 03:06:10;;;;;;;8.73;2.83;;;8.70;97.40;;;;;;5071075;28;20197;-63
2022/05/28 03:08:37;;;;;;;13.23;3.40;;;8.70;98.00;;;;;;5071440;28;20206;-62
2022/05/28 03:11:03;;;;;;;10.43;2.70;;;8.80;98.30;;;;;;5071271;28;20297;-63
2022/05/28 03:13:30;;;;;;;12.40;2.80;;;8.80;98.50;;;;;;5071565;28;20633;-64
2022/05/28 03:15:57;;;;;;;16.00;2.90;;;8.80;99.50;;;;;;5070864;28;20226;-62
2022/05/28 03:18:23;;;;;;;11.90;3.30;;;8.80;99.90;;;;;;5071529;28;20214;-64
2022/05/28 03:20:50;;;;;;;9.93;2.93;;;8.90;99.90;;;;;;5071239;28;20274;-64
2022/05/28 03:23:18;;;;;;;7.20;2.60;;;8.90;99.90;;;;;;5071153;28;20291;-64
2022/05/28 03:25:45;;;;;;;11.93;2.70;;;9.00;99.90;;;;;;5071426;28;20207;-62
2022/05/28 03:28:11;;;;;;;9.43;2.70;;;9.00;99.90;;;;;;5070819;28;20210;-64
2022/05/28 03:30:38;;;;;;;7.77;2.63;;;9.00;99.90;;;;;;5071452;28;20259;-64
2022/05/28 03:33:05;;;;;;;10.23;3.20;;;9.00;98.60;;;;;;5071118;28;20300;-62
2022/05/28 03:35:31;;;;;;;11.10;2.63;;;9.10;98.20;;;;;;5071123;28;20225;-64
2022/05/28 03:37:58;;;;;;;12.40;3.07;;;9.10;99.90;;;;;;5070537;28;20232;-64
2022/05/28 03:40:26;;;;;;;10.73;2.93;;;9.10;99.90;;;;;;5071015;28;20681;-64
2022/05/28 03:42:53;;;;;;;14.87;3.30;;;9.10;99.90;;;;;;5071218;28;20228;-64
2022/05/28 03:45:19;;;;;;;10.30;3.07;;;9.10;99.90;;;;;;5071203;28;20252;-64
2022/05/28 03:47:46;;;;;;;10.07;3.07;;;9.20;99.90;;;;;;5070805;28;20212;-64
2022/05/28 03:50:13;;;;;;;5.93;2.90;;;9.10;99.90;;;;;;5070638;28;20211;-64
2022/05/28 03:52:39;;;;;;;12.30;3.07;;;9.10;99.90;;;;;;5071586;28;20226;-62
2022/05/28 03:55:07;;;;;;;7.77;2.87;;;9.10;99.90;;;;;;5074345;28;20705;-64
2022/05/28 03:57:35;;;;;;;9.77;3.00;;;9.10;99.90;;;;;;5074279;28;20277;-64
2022/05/28 04:00:02;;;;;;;10.87;3.20;;;9.10;99.90;;;;;;5074659;28;20205;-64
2022/05/28 04:02:29;;;;;;;15.03;3.63;;;9.10;99.90;;;;;;5074214;28;20741;-63
2022/05/28 04:04:55;;;;;;;7.47;2.70;;;9.10;99.90;;;;;;5074300;28;20206;-64
2022/05/28 04:07:22;;;;;;;10.17;3.83;;;9.10;99.90;;;;;;5074142;28;20639;-64
2022/05/28 04:09:49;;;;;;;14.17;3.40;;;9.10;99.90;;;;;;5074410;28;20597;-64
2022/05/28 04:12:16;;;;;;;14.90;2.77;;;9.10;99.90;;;;;;5074148;28;20631;-64
2022/05/28 04:14:44;;;;;;;8.27;3.23;;;9.10;99.90;;;;;;5074193;28;20340;-64
2022/05/28 04:17:11;;;;;;;8.90;3.07;;;9.10;99.90;;;;;;5073963;28;20237;-64
2022/05/28 04:19:38;;;;;;;11.37;3.23;;;9.20;99.90;;;;;;5073923;28;20696;-64
2022/05/28 04:22:05;;;;;;;11.80;3.10;;;9.20;99.90;;;;;;5074277;28;20305;-64
2022/05/28 04:24:31;;;;;;;11.47;3.00;;;9.20;99.90;;;;;;5074096;28;20239;-64
2022/05/28 04:26:58;;;;;;;11.03;3.10;;;9.30;99.90;;;;;;5073778;28;20214;-63
2022/05/28 04:29:25;;;;;;;9.73;2.90;;;9.30;99.90;;;;;;5074009;28;20260;-63
2022/05/28 04:31:53;;;;;;;12.50;3.17;;;9.30;99.90;;;;;;5073944;28;20240;-64
2022/05/28 04:34:19;;;;;;;8.97;3.17;;;9.40;99.90;;;;;;5074352;28;20232;-65
2022/05/28 04:36:46;;;;;;;14.17;3.40;;;9.50;99.90;;;;;;5073398;28;20221;-64
2022/05/28 04:39:13;;;;;;;10.67;3.30;;;9.60;99.90;;;;;;5073698;28;20211;-63
2022/05/28 04:41:39;;;;;;;12.33;3.00;;;9.70;99.90;;;;;;5073667;28;20207;-64
2022/05/28 04:44:06;;;;;;;8.27;3.07;;;9.80;99.90;;;;;;5073765;28;20284;-65
2022/05/28 04:46:33;;;;;;;11.33;2.90;;;9.80;99.90;;;;;;5072956;28;20202;-63
2022/05/28 04:49:01;;;;;;;8.80;2.87;;;10.00;99.90;;;;;;5073758;28;20264;-64
2022/05/28 04:51:28;;;;;;;11.00;2.87;;;10.00;99.90;;;;;;5073663;28;20206;-65
2022/05/28 04:53:55;;;;;;;7.80;2.90;;;10.10;99.90;;;;;;5073501;28;20234;-64
2022/05/28 04:56:22;;;;;;;7.90;2.87;;;10.20;99.90;;;;;;5073289;28;20663;-64
2022/05/28 04:58:48;;;;;;;10.87;2.63;;;10.30;99.90;;;;;;5073341;28;20619;-64
2022/05/28 05:01:17;;;;;;;11.87;2.90;;;10.30;99.90;;;;;;5073319;28;20253;-62
2022/05/28 05:03:44;;;;;;;7.50;2.63;;;10.30;99.90;;;;;;5072673;28;20234;-64
2022/05/28 05:06:13;;;;;;;10.47;2.77;;;10.30;99.90;;;;;;5072879;28;21208;-62
2022/05/28 05:08:39;;;;;;;10.73;2.83;;;10.30;99.90;;;;;;5073289;28;20205;-63
2022/05/28 05:11:06;;;;;;;9.70;3.17;;;10.40;99.90;;;;;;5073026;28;20212;-64
2022/05/28 05:13:33;;;;;;;8.87;2.70;;;10.40;99.90;;;;;;5072754;28;20231;-64
2022/05/28 05:16:00;;;;;;;12.10;2.77;;;10.40;99.90;;;;;;5072249;28;20627;-63
2022/05/28 05:18:27;;;;;;;9.97;2.93;;;10.50;99.90;;;;;;5072920;28;20260;-65
2022/05/28 05:20:53;;;;;;;4.40;2.13;;;10.50;99.90;;;;;;5073327;28;20268;-64
2022/05/28 05:23:21;;;;;;;5.03;2.70;;;10.50;99.50;;;;;;5073324;28;20277;-63
2022/05/28 05:25:48;;;;;;;7.17;2.63;;;10.50;98.20;;;;;;5073044;28;20201;-63
2022/05/28 05:28:14;;;;;;;10.17;2.90;;;10.50;97.50;;;;;;5072391;28;20212;-64
2022/05/28 05:30:41;;;;;;;6.07;2.13;;;10.40;95.80;;;;;;5073037;28;20605;-65
2022/05/28 05:33:08;;;;;;;12.10;2.80;;;10.40;95.30;;;;;;5072482;28;20232;-65
2022/05/28 05:35:35;;;;;;;7.57;2.20;;;10.40;94.60;;;;;;5072697;28;20222;-64
2022/05/28 05:38:05;;;;;;;7.60;2.67;;;10.40;91.30;;;;;;5072187;28;20263;-64
2022/05/28 05:40:34;;;;;;;9.00;2.50;;;10.50;88.20;;;;;;5072618;28;20208;-64
2022/05/28 05:43:01;;;;;;;9.67;3.00;;;10.60;74.70;;;;;;5072420;28;20230;-64
2022/05/28 05:45:28;;;;;;;7.27;2.73;;;10.70;79.80;;;;;;5072721;28;20205;-64
2022/05/28 05:47:55;;;;;;;6.90;2.60;;;10.70;78.70;;;;;;5072265;28;20252;-64
2022/05/28 05:50:21;;;;;;;9.20;2.90;;;10.80;67.10;;;;;;5072313;28;20207;-64
2022/05/28 05:52:48;;;;;;;7.10;2.93;;;11.00;64.20;;;;;;5072247;28;20737;-65
2022/05/28 05:55:15;;;;;;;9.97;2.40;;;11.10;41.00;;;;;;5072010;28;20229;-65
2022/05/28 05:57:43;;;;;;;8.33;2.60;;;11.20;45.00;;;;;;5072176;28;20213;-65
2022/05/28 06:00:11;;;;;;;12.53;2.67;;;11.30;32.40;;;;;;5072291;28;20262;-64
2022/05/28 06:02:37;;;;;;;6.13;2.00;;;11.30;16.90;;;;;;5072262;28;20706;-65
2022/05/28 06:05:05;;;;;;;8.03;2.43;;;11.40;17.30;;;;;;5072163;28;20279;-65
2022/05/28 06:07:31;;;;;;;7.53;2.53;;;11.30;1.00;;;;;;5071741;28;20648;-65
2022/05/28 06:09:58;;;;;;;9.50;2.20;;;11.30;17.50;;;;;;5071994;28;20231;-65
2022/05/28 06:12:24;;;;;;;8.53;2.50;;;11.40;1.00;;;;;;5071973;28;20261;-65
2022/05/28 06:14:52;;;;;;;6.23;2.00;;;11.50;1.00;;;;;;5071656;28;20208;-65
2022/05/28 06:17:19;;;;;;;3.03;1.27;;;11.50;1.00;;;;;;5071088;28;20225;-64
2022/05/28 06:19:46;;;;;;;7.30;2.23;;;11.50;1.00;;;;;;5072128;28;20201;-65
2022/05/28 06:22:12;;;;;;;9.23;1.60;;;11.50;1.00;;;;;;5071862;28;20228;-65
2022/05/28 06:24:39;;;;;;;3.40;1.90;;;11.60;1.00;;;;;;5071744;28;20656;-64
2022/05/28 06:27:06;;;;;;;3.83;1.90;;;11.70;1.00;;;;;;5071819;28;20205;-65
2022/05/28 06:29:33;;;;;;;6.60;1.90;;;11.80;1.00;;;;;;5071881;28;20204;-65
2022/05/28 06:32:01;;;;;;;8.17;2.03;;;12.10;1.00;;;;;;5071842;28;20269;-66
2022/05/28 06:34:28;;;;;;;8.67;2.33;;;12.30;99.90;;;;;;5071653;28;20231;-66
2022/05/28 06:36:55;;;;;;;9.70;1.90;;;12.50;1.00;;;;;;5071093;28;20251;-66
2022/05/28 06:39:22;;;;;;;5.27;1.70;;;12.60;99.90;;;;;;5071736;28;20209;-64
2022/05/28 06:41:49;;;;;;;6.83;2.17;;;12.90;1.00;;;;;;5071762;28;20206;-65
2022/05/28 06:44:15;;;;;;;4.63;1.93;;;12.90;99.90;;;;;;5071623;28;20233;-64
2022/05/28 06:46:42;;;;;;;5.67;1.70;;;12.90;99.90;;;;;;5071284;28;20663;-65
2022/05/28 06:49:10;;;;;;;7.13;2.10;;;13.00;99.90;;;;;;5071590;28;20263;-65
2022/05/28 06:51:38;;;;;;;4.37;1.87;;;12.80;1.00;;;;;;5071382;28;20262;-66
2022/05/28 06:54:04;;;;;;;6.97;1.90;;;12.60;99.90;;;;;;5071752;28;20263;-66
2022/05/28 06:56:31;;;;;;;6.17;1.90;;;12.30;1.00;;;;;;5071251;28;20641;-66
2022/05/28 06:58:58;;;;;;;5.50;2.13;;;12.30;1.00;;;;;;5071538;28;20357;-66
2022/05/28 07:01:24;;;;;;;4.93;1.60;;;12.20;1.00;;;;;;5071561;28;20227;-65
2022/05/28 07:03:51;;;;;;;5.33;2.13;;;12.20;1.00;;;;;;5071375;28;20221;-65
2022/05/28 07:06:19;;;;;;;5.33;1.80;;;12.00;99.90;;;;;;5071459;28;20208;-65
2022/05/28 07:08:46;;;;;;;2.60;1.40;;;12.10;99.90;;;;;;5071339;28;20209;-65
2022/05/28 07:11:13;;;;;;;9.60;1.93;;;12.10;1.00;;;;;;5071653;28;20200;-64
2022/05/28 07:13:40;;;;;;;4.90;1.27;;;12.30;99.90;;;;;;5071406;28;20225;-65
2022/05/28 07:16:08;;;;;;;6.90;1.40;;;12.50;1.00;;;;;;5070749;28;20224;-66
2022/05/28 07:18:36;;;;;;;7.20;2.17;;;12.50;1.00;;;;;;5063105;28;20215;-64
2022/05/28 07:21:04;;;;;;;3.23;1.30;;;12.50;1.00;;;;;;5070155;28;20214;-64
2022/05/28 07:23:33;;;;;;;4.93;1.20;;;12.60;1.00;;;;;;5071063;28;20225;-63
2022/05/28 07:26:01;;;;;;;8.03;1.43;;;12.70;1.00;;;;;;5070137;28;20656;-63
2022/05/28 07:28:30;;;;;;;2.73;1.23;;;12.70;99.90;;;;;;5074580;28;20211;-64
2022/05/28 07:30:58;;;;;;;5.57;1.07;;;12.70;99.90;;;;;;5074431;28;20209;-64
2022/05/28 07:33:26;;;;;;;12.77;1.30;;;12.70;99.90;;;;;;5074534;28;20229;-64
2022/05/28 07:35:54;;;;;;;3.17;0.90;;;12.50;99.90;;;;;;5074278;28;20216;-63
2022/05/28 07:38:20;;;;;;;3.47;1.50;;;12.50;99.90;;;;;;5074404;28;20721;-64
2022/05/28 07:40:49;;;;;;;5.50;1.27;;;12.50;99.90;;;;;;5074311;28;20205;-64
2022/05/28 07:43:17;;;;;;;2.83;1.13;;;12.30;99.90;;;;;;5074080;28;20711;-64
2022/05/28 07:45:45;;;;;;;5.77;1.17;;;12.20;99.90;;;;;;5074147;28;20205;-64
2022/05/28 07:48:14;;;;;;;3.77;1.20;;;12.50;99.90;;;;;;5074270;28;20204;-65
2022/05/28 07:50:41;;;;;;;5.13;1.20;;;12.80;99.90;;;;;;5074207;28;20268;-64
2022/05/28 07:53:08;;;;;;;3.37;1.10;;;13.20;99.90;;;;;;5074328;28;20570;-64
2022/05/28 07:55:35;;;;;;;2.83;1.47;;;13.60;99.90;;;;;;5074155;28;20212;-64
2022/05/28 07:58:08;;;;;;;4.40;1.30;;;13.80;99.90;;;;;;5073937;28;20268;-65
2022/05/28 08:00:39;;;;;;;8.10;1.00;;;13.90;99.90;;;;;;5073968;28;20205;-64
2022/05/28 08:03:07;;;;;;;4.43;1.50;;;14.00;99.90;;;;;;5073830;28;20229;-63
2022/05/28 08:05:33;;;;;;;7.10;1.67;;;14.20;99.90;;;;;;5074129;28;20213;-64
2022/05/28 08:08:00;;;;;;;3.73;1.10;;;14.20;99.90;;;;;;5073494;28;20257;-64
2022/05/28 08:10:26;;;;;;;4.23;1.37;;;13.90;99.90;;;;;;5073915;28;20204;-65
2022/05/28 08:12:53;;;;;;;3.47;1.40;;;13.60;99.90;;;;;;5073376;28;20224;-64
2022/05/28 08:15:21;;;;;;;7.03;1.13;;;13.30;99.90;;;;;;5073899;28;20215;-65
2022/05/28 08:17:48;;;;;;;2.37;1.20;;;13.30;99.90;;;;;;5073414;28;20236;-64
2022/05/28 08:20:14;;;;;;;5.53;1.17;;;13.20;99.90;;;;;;5073367;28;20268;-65
2022/05/28 08:25:26;;;;;;;3.73;1.00;;;13.00;99.90;;;;;;5073480;28;20319;-65
2022/05/28 08:27:52;;;;;;;2.57;0.97;;;13.30;99.90;;;;;;5073491;28;20200;-65
2022/05/28 08:30:20;;;;;;;5.23;0.90;;;13.60;99.90;;;;;;5073380;28;20208;-66
2022/05/28 08:32:47;;;;;;;2.37;0.90;;;13.80;99.90;;;;;;5073435;28;20643;-66
2022/05/28 08:35:13;;;;;;;4.13;1.10;;;13.80;99.90;;;;;;5073673;28;20266;-66
2022/05/28 08:37:40;;;;;;;9.03;1.20;;;14.00;99.90;;;;;;5072737;28;20270;-65
2022/05/28 08:40:08;;;;;;;4.10;1.20;;;13.90;99.90;;;;;;5072371;28;20216;-66
2022/05/28 08:42:36;;;;;;;3.43;0.87;;;14.10;99.90;;;;;;5073040;28;20714;-65
2022/05/28 08:45:05;;;;;;;2.00;1.00;;;14.30;99.90;;;;;;5073421;28;20262;-66
2022/05/28 08:47:38;;;;;;;1.63;0.90;;;14.40;99.90;;;;;;5073119;28;20247;-65
2022/05/28 08:50:07;;;;;;;2.87;1.00;;;14.60;99.90;;;;;;5072980;28;20614;-67
2022/05/28 08:52:39;;;;;;;4.17;1.10;;;14.60;99.90;;;;;;5073354;28;20352;-66
2022/05/28 08:55:09;;;;;;;5.30;1.10;;;14.80;99.90;;;;;;5072975;28;20646;-63
2022/05/28 08:57:48;;;;;;;6.50;1.40;;;14.80;99.90;;;;;;5072795;28;20225;-63
2022/05/28 09:00:17;;;;;;;5.43;1.30;;;14.90;99.90;;;;;;5072526;28;20219;-62
2022/05/28 09:02:49;;;;;;;3.87;1.07;;;14.70;99.90;;;;;;5072876;28;20282;-62
2022/05/28 09:05:24;;;;;;;7.53;1.17;;;15.00;99.90;;;;;;5072975;28;20208;-63
2022/05/28 09:07:53;;;;;;;4.57;1.40;;;15.30;99.90;;;;;;5072672;28;20648;-63
2022/05/28 09:10:20;;;;;;;5.53;1.00;;;15.70;99.90;;;;;;5072735;28;20201;-63
2022/05/28 09:12:54;;;;;;;4.63;1.23;;;15.70;99.90;;;;;;5072697;28;20580;-63
2022/05/28 09:15:21;;;;;;;4.80;1.27;;;15.40;99.90;;;;;;5072456;28;20697;-64
2022/05/28 09:17:52;;;;;;;2.87;1.03;;;14.90;99.90;;;;;;5072572;28;20228;-64
2022/05/28 09:20:21;;;;;;;3.30;1.13;;;14.60;99.90;;;;;;5072535;28;20556;-65
2022/05/28 09:22:49;;;;;;;2.30;1.10;;;14.70;99.90;;;;;;5072620;28;20232;-65
2022/05/28 09:25:19;;;;;;;3.60;1.30;;;14.60;99.90;;;;;;5072452;28;20209;-64
2022/05/28 09:27:56;;;;;;;6.40;1.27;;;14.80;99.90;;;;;;5072047;28;20251;-64
2022/05/28 09:30:34;;;;;;;5.83;1.00;;;15.20;99.90;;;;;;5072318;28;20212;-65
2022/05/28 09:33:26;;;;;;;2.20;1.10;;;15.60;99.90;;;;;;5072569;28;20232;-64
2022/05/28 09:36:03;;;;;;;5.13;1.30;;;15.70;99.90;;;;;;5071893;28;20578;-63
2022/05/28 09:38:39;;;;;;;2.07;1.10;;;16.10;99.90;;;;;;5077748;28;20232;-64
2022/05/28 09:41:22;;;;;;;8.30;1.47;;;16.00;99.90;;;;;;5078144;28;20220;-64
2022/05/28 09:43:57;;;;;;;5.33;1.37;;;15.90;99.90;;;;;;5076953;28;20225;-65
2022/05/28 09:46:31;;;;;;;5.53;1.60;;;15.50;99.90;;;;;;5071605;28;20670;-64
2022/05/28 09:49:04;;;;;;;4.20;1.20;;;15.40;99.90;;;;;;5071819;28;20816;-64
2022/05/28 09:51:33;;;;;;;4.60;1.47;;;15.20;99.90;;;;;;5072215;28;20330;-64
2022/05/28 09:54:18;;;;;;;5.97;1.60;;;14.70;99.90;;;;;;5071822;28;20225;-63
2022/05/28 09:56:51;;;;;;;4.93;1.60;;;14.80;99.90;;;;;;5071510;28;20294;-64
2022/05/28 09:59:27;;;;;;;2.33;1.23;;;14.70;99.90;;;;;;5071481;28;20213;-64
2022/05/28 10:01:58;;;;;;;6.33;1.33;;;14.50;99.90;;;;;;5072162;28;20209;-64
2022/05/28 10:04:28;;;;;;;2.43;1.30;;;14.60;99.90;;;;;;5071537;28;20225;-63
2022/05/28 10:06:56;;;;;;;3.47;1.03;;;14.60;99.90;;;;;;5071630;28;20230;-64
2022/05/28 10:09:26;;;;;;;6.17;1.33;;;14.50;99.90;;;;;;5071453;28;20287;-63
2022/05/28 10:11:55;;;;;;;5.10;1.20;;;14.40;99.90;;;;;;5071877;28;20421;-64
2022/05/28 10:14:22;;;;;;;5.50;1.37;;;14.60;99.90;;;;;;5071696;28;20647;-64
2022/05/28 10:16:54;;;;;;;4.27;1.20;;;15.10;99.90;;;;;;5071185;28;20601;-64
2022/05/28 10:19:27;;;;;;;4.33;1.17;;;15.60;99.90;;;;;;5071378;28;20207;-64
2022/05/28 10:21:57;;;;;;;5.10;1.37;;;15.70;99.90;;;;;;5071284;28;20258;-64
2022/05/28 10:24:26;;;;;;;4.17;1.07;;;15.90;99.90;;;;;;5071401;28;20225;-64
2022/05/28 10:26:56;;;;;;;2.67;1.13;;;16.20;99.90;;;;;;5071452;28;20200;-64
2022/05/28 10:29:28;;;;;;;5.73;1.60;;;16.20;99.90;;;;;;5071284;28;20209;-66
2022/05/28 10:31:57;;;;;;;5.57;1.30;;;16.50;99.90;;;;;;5071626;28;20201;-63
2022/05/28 10:34:33;;;;;;;5.13;0.90;;;16.50;99.90;;;;;;5070605;28;20232;-63
2022/05/28 10:37:08;;;;;;;2.00;0.90;;;16.60;99.90;;;;;;5071452;28;20297;-63
2022/05/28 10:39:37;;;;;;;2.13;0.70;;;16.90;99.90;;;;;;5071706;28;20204;-63
2022/05/28 10:42:06;;;;;;;2.63;0.80;;;17.10;99.90;;;;;;5071510;28;20721;-63
2022/05/28 10:44:33;;;;;;;6.73;1.23;;;16.90;99.90;;;;;;5071661;28;20224;-64
2022/05/28 10:47:09;;;;;;;3.67;1.23;;;16.60;99.90;;;;;;5070992;28;20205;-63
2022/05/28 10:49:46;;;;;;;5.47;1.40;;;15.80;99.90;;;;;;5071744;28;20653;-63
2022/05/28 10:52:24;;;;;;;5.93;1.70;;;15.40;99.90;;;;;;5071450;28;20204;-63
2022/05/28 10:55:01;;;;;;;4.07;1.70;;;15.20;99.90;;;;;;5071510;28;20269;-63
2022/05/28 10:57:48;;;;;;;4.87;1.30;;;15.10;99.90;;;;;;5070752;28;20288;-63
2022/05/28 11:00:19;;;;;;;6.57;1.33;;;14.80;99.90;;;;;;5071601;28;20396;-63
2022/05/28 11:03:25;;;;;;;4.60;1.33;;;15.00;99.90;;;;;;5073756;28;20323;-63
2022/05/28 11:06:21;;;;;;;5.03;1.10;;;15.50;99.90;;;;;;5075242;28;20615;-63
2022/05/28 11:08:55;;;;;;;2.77;0.90;;;16.00;99.90;;;;;;5075304;28;20205;-63
2022/05/28 11:11:34;;;;;;;4.07;1.40;;;16.10;99.90;;;;;;5075288;28;20212;-63
2022/05/28 11:14:16;;;;;;;5.67;1.10;;;16.20;99.90;;;;;;5074867;28;20231;-63
2022/05/28 11:16:54;;;;;;;4.77;1.17;;;16.40;99.90;;;;;;5074960;28;20216;-63
2022/05/28 11:19:35;;;;;;;4.53;1.47;;;16.30;99.90;;;;;;5075161;28;20651;-63
2022/05/28 11:22:22;;;;;;;5.30;1.30;;;16.30;99.90;;;;;;5075123;28;20205;-63
2022/05/28 11:24:53;;;;;;;2.40;1.20;;;16.00;99.90;;;;;;5074963;28;20792;-63
2022/05/28 11:27:59;;;;;;;2.50;1.07;;;16.00;99.90;;;;;;5074860;28;20201;-63
2022/05/28 11:30:30;;;;;;;3.93;0.90;;;16.50;99.90;;;;;;5043981;28;20220;-63
2022/05/28 11:33:02;;;;;;;5.33;1.10;;;16.80;99.90;;;;;;5074596;28;20741;-63
2022/05/28 11:35:37;;;;;;;2.27;0.93;;;16.80;99.90;;;;;;5075910;28;20205;-63
2022/05/28 11:38:13;;;;;;;5.93;1.00;;;16.80;99.90;;;;;;5074363;28;20319;-63
2022/05/28 11:40:51;;;;;;;2.43;1.00;;;16.90;99.90;;;;;;5074630;28;20254;-63
2022/05/28 11:43:22;;;;;;;4.77;1.17;;;17.40;99.90;;;;;;5074227;28;20275;-63
2022/05/28 11:45:52;;;;;;;3.60;1.17;;;17.50;99.90;;;;;;5074969;28;20255;-63
2022/05/28 11:48:24;;;;;;;4.03;0.93;;;17.10;99.90;;;;;;5074715;28;20205;-63
2022/05/28 11:53:57;;;;;;;6.83;1.63;;;16.40;99.90;;;;;;5070483;28;20305;-63
2022/05/28 11:56:28;;;;;;;5.37;1.10;;;15.70;99.90;;;;;;5074056;28;20209;-63
2022/05/28 11:58:59;;;;;;;5.40;1.40;;;16.00;99.90;;;;;;5074508;28;20268;-63
2022/05/28 12:01:29;;;;;;;3.33;1.50;;;16.50;99.90;;;;;;5074356;28;20216;-63
2022/05/28 12:03:57;;;;;;;5.93;1.60;;;16.50;99.90;;;;;;5074202;28;20286;-63
2022/05/28 12:06:30;;;;;;;7.63;1.60;;;16.40;99.90;;;;;;5073591;28;20309;-63
2022/05/28 12:09:07;;;;;;;4.87;1.43;;;16.40;99.90;;;;;;5074414;28;20207;-63
2022/05/28 12:11:41;;;;;;;3.77;1.37;;;16.40;99.90;;;;;;5074096;28;20217;-62
2022/05/28 12:14:22;;;;;;;4.67;1.50;;;16.40;99.90;;;;;;5072881;28;20228;-64
2022/05/28 12:17:02;;;;;;;3.23;1.20;;;16.50;99.90;;;;;;5065805;28;20208;-63
2022/05/28 12:19:29;;;;;;;6.00;1.23;;;16.70;99.90;;;;;;5073509;28;20207;-64
2022/05/28 12:22:08;;;;;;;5.93;1.67;;;16.50;99.90;;;;;;5073679;28;20419;-66
2022/05/28 12:24:40;;;;;;;4.50;1.10;;;16.80;99.90;;;;;;5073834;28;20315;-67
2022/05/28 12:27:16;;;;;;;9.77;3.50;;;17.00;99.90;;;;;;5072897;28;20231;-65
2022/05/28 12:29:58;;;;;;;5.30;1.53;;;17.20;99.90;;;;;;5073618;28;20254;-64
2022/05/28 12:32:28;;;;;;;3.63;1.10;;;16.90;99.90;;;;;;5073548;28;20210;-65
2022/05/28 12:34:58;;;;;;;5.17;1.87;;;16.30;99.90;;;;;;5073356;28;20279;-64
2022/05/28 12:37:29;;;;;;;3.73;1.60;;;16.20;99.90;;;;;;5072748;28;20629;-64
2022/05/28 12:40:28;;;;;;;3.43;1.30;;;16.30;99.90;;;;;;5073393;28;20259;-64
2022/05/28 12:42:55;;;;;;;8.97;1.50;;;16.40;99.90;;;;;;5073118;28;20221;-64
2022/05/28 12:45:36;;;;;;;5.07;1.47;;;16.60;99.90;;;;;;5073019;28;20284;-64
2022/05/28 12:48:11;;;;;;;3.90;1.17;;;17.00;99.90;;;;;;5072738;28;20273;-64
2022/05/28 12:50:59;;;;;;;4.83;1.30;;;17.10;99.90;;;;;;5072861;28;20728;-63
2022/05/28 12:53:26;;;;;;;3.13;1.03;;;17.30;99.90;;;;;;5073185;28;20239;-64
2022/05/28 12:56:02;;;;;;;5.70;1.40;;;17.50;99.90;;;;;;5072693;28;20204;-64
2022/05/28 12:58:32;;;;;;;4.40;1.30;;;17.50;99.90;;;;;;5073079;28;20232;-64
2022/05/28 13:01:01;;;;;;;4.23;1.00;;;17.60;99.90;;;;;;5073071;28;20741;-64
2022/05/28 13:03:32;;;;;;;2.27;0.90;;;17.70;99.90;;;;;;5073261;28;20278;-64
2022/05/28 13:06:07;;;;;;;2.63;0.80;;;17.60;99.90;;;;;;5072503;28;20823;-64
2022/05/28 13:08:34;;;;;;;3.70;1.00;;;17.30;99.90;;;;;;5072588;28;20208;-63
2022/05/28 13:11:07;;;;;;;2.20;0.80;;;16.90;99.90;;;;;;5072881;28;20205;-62
2022/05/28 13:13:54;;;;;;;4.87;1.13;;;16.70;99.90;;;;;;5073004;28;20324;-63